CheckWX is a tool to help pilots better visualize weather data.  It is not intended as a substitute for an official pre-flight weather briefing.

10:08:03 UTC

CYJT TAF
Stephenville Airport
Stephenville, Canada
TAF CYJT 260538Z 2606/2706 VRB03KT 1/2SM FG VV002 TEMPO 2606/2610 P6SM NSW SCT005 BKN025 FM261000 VRB03KT P6SM FEW240 BECMG 2613/2615 25008KT BECMG 2622/2624 08007KT RMK NXT FCST BY 261200Z

Jun-26@
06:00 UTC

Jun-26 @ 06:00 UTC

Jun-26@
10:00 UTC

Jun-26 @ 10:00 UTC

TAF CYJT 260538Z 2606/2706 VRB03KT 1/2SM FG VV002

Expired

Wind
  • Variable at 3 KTS
Conditions
Fog
Cloud Levels
  • Vertical visibility at 200' AGL

Jun-26@
06:00 UTC

Jun-26 @ 06:00 UTC

Jun-26@
10:00 UTC

Jun-26 @ 10:00 UTC

TEMPO 2606/2610 P6SM NSW SCT005 BKN025

Expired

Conditions
No significant weather
Cloud Levels
  • Scattered at 500' AGL
  • Broken at 2,500' AGL

Jun-26@
10:00 UTC

Jun-26 @ 10:00 UTC

Jun-26@
13:00 UTC

Jun-26 @ 13:00 UTC

FM261000 VRB03KT P6SM FEW240

From

From Standard forecast or significant change

Wind
  • Variable at 3 KTS
Cloud Levels
  • Few at 24,000' AGL

Jun-26@
13:00 UTC

Jun-26 @ 13:00 UTC

Jun-26@
22:00 UTC

Jun-26 @ 22:00 UTC

BECMG 2613/2615 25008KT

Becoming

Becoming Conditions expected by Wed, Jun 26, 2019 @ 15:00 UTC

Wind
  • 250° at 8 KTS
Cloud Levels
  • Few at 24,000' AGL

Jun-26@
22:00 UTC

Jun-26 @ 22:00 UTC

Jun-27@
06:00 UTC

Jun-27 @ 06:00 UTC

BECMG 2622/2624 08007KT RMK NXT FCST BY 261200Z

Becoming

Becoming Conditions expected by Thu, Jun 27, 2019 @ 00:00 UTC

Wind
  • 080° at 7 KTS
Cloud Levels
  • Few at 24,000' AGL